Terminal Aerodrome Forecast
Issued by NWS

Home | Current Version | Previous Version | Graphics & Text | Print | Product List | Glossary On
Versions: 1 2 3 4 5 6 7 8 9 10 11 12
000
FTUS43 KICT 222322
TAFRSL
TAF
KRSL 222322Z 2300/2324 19012KT P6SM FEW250
     FM230600 24007KT P6SM SCT250
     FM231200 30006KT P6SM FEW250
     FM232100 24006KT P6SM FEW250=

USA.gov is the U.S. government's official web portal to all federal, state and local government web resources and services.